Latest Weather Observations for Low Isles

IDQ60801

Issued at 12:02 pm EST Saturday 3 December 2016 (issued every 30 minutes, with the page automatically refreshed every 10 minutes)

About weather observations | Map of weather stations | Latest weather observations for QLD | Other Formats
Station Details ID: 031037 Name: LOW ISLES LIGHTHOUSE Lat: -16.38 Lon: 145.56 Height: 2.9 m
Data from the previous 72 hours. | See also: Recent months at Low Isles
Date/Time
EST
Temp
°C
App
Temp
°C
Dew
Point
°C
Rel
Hum
%
Delta-T
°C
Wind Press
QNH
hPa
Press
MSL
hPa
Rain since
9am
mm
Dir  Spd
km/h
Gust
km/h
Spd
kts
Gust
kts
03/12:00pm 30.9 33.2 21.4 57 6.4 SSE 11 13 6 7 1013.2 1013.1 0.0
03/11:30am 30.9 32.8 21.4 57 6.4 SSE 13 15 7 8 1013.5 - 0.0
03/11:00am 30.7 32.5 21.2 57 6.4 SE 13 17 7 9 1013.7 - 0.0
03/10:30am 30.5 32.2 21.6 59 6.0 SSE 15 22 8 12 1014.0 - 0.0
03/10:00am 30.1 32.2 21.7 60 5.7 SSE 13 17 7 9 1014.0 - 0.0
03/09:30am 29.9 32.1 21.8 62 5.5 SE 13 20 7 11 1013.9 - 0.0
03/09:00am 28.5 30.3 21.8 67 4.5 SE 15 20 8 11 1013.8 1013.7 0.0
03/08:30am 28.0 31.3 22.5 72 3.7 SSW 9 11 5 6 1013.7 - 0.0
03/08:00am 26.6 29.0 22.2 77 3.0 WSW 13 17 7 9 1013.5 - 0.0
03/07:30am 25.8 26.8 21.0 75 3.2 W 17 20 9 11 1013.3 - 0.0
03/07:00am 25.7 27.3 21.4 77 2.8 WSW 15 19 8 10 1013.1 - 0.0
03/06:30am 25.5 26.2 20.5 74 3.3 W 17 19 9 10 1012.7 - 0.0
03/06:00am 25.5 27.2 21.0 76 3.0 WSW 13 15 7 8 1012.3 1012.2 0.0
03/05:30am 25.3 27.2 21.4 79 2.6 WSW 13 15 7 8 1012.0 - 0.0
03/05:00am 25.3 26.9 20.8 76 3.0 WSW 13 15 7 8 1011.9 - 0.0
03/04:30am 25.6 27.5 22.1 81 2.3 W 15 17 8 9 1011.8 - 0.0
03/04:00am 25.5 27.3 21.2 77 2.8 W 13 17 7 9 1011.5 - 0.0
03/03:30am 25.8 27.9 21.7 78 2.7 WSW 13 15 7 8 1011.4 - 0.0
03/03:00am 26.0 28.3 22.1 79 2.6 W 13 13 7 7 1011.1 1011.0 0.0
03/02:30am 26.1 28.2 21.7 77 2.9 W 13 15 7 8 1010.9 - 0.0
03/02:00am 26.2 28.6 22.3 79 2.6 WSW 13 15 7 8 1011.1 - 0.0
03/01:30am 26.3 27.9 22.2 78 2.8 WSW 17 19 9 10 1011.3 - 0.0
03/01:00am 26.7 28.4 22.3 77 3.0 WSW 17 19 9 10 1011.8 - 0.0
03/12:30am 26.6 27.8 22.2 77 3.0 WSW 19 20 10 11 1012.2 - 0.0
03/12:00am 26.3 30.0 22.6 80 2.5 SSW 7 15 4 8 1012.7 1012.6 0.0
 
Date/Time
EST
Temp
°C
App
Temp
°C
Dew
Point
°C
Rel
Hum
%
Delta-T
°C
Wind Press
QNH
hPa
Press
MSL
hPa
Rain since
9am
mm
Dir  Spd
km/h
Gust
km/h
Spd
kts
Gust
kts
02/11:30pm 26.0 29.2 22.3 80 2.5 ESE 9 9 5 5 1013.0 - 0.0
02/11:00pm 26.3 29.3 22.6 80 2.5 SE 11 13 6 7 1013.3 - 0.0
02/10:30pm 26.4 30.0 22.3 78 2.8 SE 7 9 4 5 1013.4 - 0.0
02/10:00pm 26.4 30.0 22.3 78 2.8 ESE 7 9 4 5 1013.1 - 0.0
02/09:30pm 26.6 30.2 22.4 78 2.8 ESE 7 9 4 5 1013.0 - 0.0
02/09:00pm 26.5 30.1 22.1 77 3.0 E 6 7 3 4 1012.9 1012.8 0.0
02/08:30pm 26.7 31.1 22.1 76 3.1 E 2 6 1 3 1012.8 - 0.0
02/08:00pm 26.7 29.9 21.7 74 3.3 ENE 7 9 4 5 1012.6 - 0.0
02/07:30pm 26.9 29.7 21.6 72 3.5 NE 9 11 5 6 1012.5 - 0.0
02/07:00pm 27.7 30.6 21.7 70 4.0 NE 9 13 5 7 1012.3 - 0.0
02/06:30pm 28.7 30.6 22.0 67 4.5 NE 15 19 8 10 1011.8 - 0.0
02/06:00pm 29.6 31.6 22.3 65 5.0 NE 15 20 8 11 1011.7 1011.6 0.0
02/05:30pm 29.8 31.5 21.7 61 5.4 ENE 15 19 8 10 1011.4 - 0.0
02/05:00pm 30.5 32.2 21.6 59 6.0 ENE 15 19 8 10 1011.0 - 0.0
02/04:30pm 31.8 33.4 22.8 59 6.2 ENE 19 22 10 12 1011.0 - 0.0
02/04:00pm 31.7 32.2 21.2 53 7.1 ENE 20 24 11 13 1011.0 - 0.0
02/03:30pm 32.6 34.0 21.8 53 7.3 ENE 17 22 9 12 1011.0 - 0.0
02/03:00pm 33.9 35.4 22.0 49 8.1 ENE 17 22 9 12 1010.8 1010.7 0.0
02/02:30pm 34.4 36.2 22.5 50 8.2 ENE 17 19 9 10 1010.9 - 0.0
02/02:00pm 33.9 35.8 22.0 49 8.1 ENE 15 17 8 9 1011.2 - 0.0
02/01:30pm 34.5 36.1 22.2 48 8.4 E 17 20 9 11 1011.5 - 0.0
02/01:00pm 34.2 35.5 22.3 50 8.2 ENE 19 20 10 11 1011.7 - 0.0
02/12:30pm 33.8 35.4 22.2 50 7.9 ENE 17 19 9 10 1011.9 - 0.0
02/12:00pm 32.3 34.9 21.2 52 7.5 ENE 9 15 5 8 1012.2 1012.1 0.0
02/11:30am 31.3 35.0 22.3 58 6.1 ENE 6 9 3 5 1012.3 - 0.0
02/11:00am 30.3 34.1 21.7 60 5.8 NW 4 9 2 5 1012.6 - 0.0
02/10:30am 30.4 34.1 22.6 63 5.3 S 7 9 4 5 1012.9 - 0.0
02/10:00am 29.0 32.7 22.2 66 4.6 WSW 6 7 3 4 1013.1 - 0.0
02/09:30am 28.2 32.0 22.7 72 3.7 W 7 11 4 6 1013.3 - 0.0
02/09:00am 27.6 30.3 22.1 72 3.7 W 11 15 6 8 1013.6 1013.5 0.0
02/08:30am 27.5 30.1 22.0 72 3.7 W 11 13 6 7 1013.6 - 0.0
02/08:00am 26.5 29.2 21.3 73 3.4 WNW 9 11 5 6 1013.3 - 0.0
02/07:30am 26.1 27.7 20.0 69 4.0 W 11 13 6 7 1012.9 - 0.0
02/07:00am 25.5 26.5 20.3 73 3.4 W 15 17 8 9 1012.4 - 0.0
02/06:30am 25.3 26.2 20.8 76 3.0 W 17 20 9 11 1012.1 - 0.0
02/06:00am 25.3 27.2 21.4 79 2.6 WNW 13 17 7 9 1011.8 1011.7 0.0
02/05:30am 25.5 27.9 21.6 79 2.6 W 11 15 6 8 1011.3 - 0.0
02/05:00am 25.7 27.9 20.5 73 3.4 WSW 9 11 5 6 1011.0 - 0.0
02/04:30am 25.5 26.5 20.3 73 3.4 W 15 17 8 9 1010.8 - 0.0
02/04:00am 25.6 26.7 20.4 73 3.4 W 15 17 8 9 1010.6 - 0.0
02/03:30am 25.8 27.0 20.6 73 3.4 W 15 17 8 9 1010.4 - 0.0
02/03:00am 25.7 27.9 21.1 76 3.0 WSW 11 15 6 8 1010.3 1010.2 0.0
02/02:30am 25.9 28.4 21.8 78 2.7 WSW 11 13 6 7 1010.4 - 0.0
02/02:00am 25.7 28.8 22.2 81 2.3 SW 9 11 5 6 1010.4 - 0.0
02/01:30am 25.8 29.4 22.3 81 2.3 W 7 11 4 6 1010.6 - 0.0
02/01:00am 26.1 29.4 22.6 81 2.4 W 9 11 5 6 1011.0 - 0.0
02/12:30am 26.2 29.5 22.5 80 2.5 W 9 11 5 6 1011.1 - 0.0
02/12:00am 26.6 29.6 22.7 79 2.6 WNW 11 15 6 8 1011.4 1011.3 0.0
 
Date/Time
EST
Temp
°C
App
Temp
°C
Dew
Point
°C
Rel
Hum
%
Delta-T
°C
Wind Press
QNH
hPa
Press
MSL
hPa
Rain since
9am
mm
Dir  Spd
km/h
Gust
km/h
Spd
kts
Gust
kts
01/11:30pm 26.7 30.0 22.5 78 2.8 WNW 9 11 5 6 1011.5 - 0.0
01/11:00pm 27.2 30.6 23.4 80 2.6 W 11 13 6 7 1011.7 - 0.0
01/10:30pm 26.2 30.6 21.4 75 3.2 CALM 0 0 0 0 1011.6 - 0.0
01/10:00pm 26.4 29.7 21.4 74 3.3 NW 6 9 3 5 1011.5 - 0.0
01/09:30pm 26.8 30.8 21.3 72 3.7 NW 2 7 1 4 1011.4 - 0.0
01/09:00pm 27.1 30.8 21.4 71 3.8 N 4 7 2 4 1011.2 1011.1 0.0
01/08:30pm 27.2 31.7 21.5 71 3.8 CALM 0 0 0 0 1010.9 - 0.0
01/08:00pm 27.1 30.4 21.4 71 3.8 NW 6 7 3 4 1010.9 - 0.0
01/07:30pm 27.0 31.1 21.5 72 3.7 NNW 2 7 1 4 1010.8 - 0.0
01/07:00pm 27.2 30.8 21.2 69 4.0 N 4 7 2 4 1010.7 - 0.0
01/06:30pm 27.6 30.2 21.2 68 4.3 N 9 13 5 7 1010.3 - 0.0
01/06:00pm 28.3 30.5 21.1 65 4.8 ENE 11 15 6 8 1010.0 1009.9 0.0
01/05:30pm 29.2 30.7 21.2 62 5.3 ENE 15 19 8 10 1010.1 - 0.0
01/05:00pm 30.3 31.9 21.4 59 6.0 ENE 15 20 8 11 1009.7 - 0.0
01/04:30pm 31.5 32.8 21.7 56 6.6 ENE 17 20 9 11 1009.6 - 0.0
01/04:00pm 32.8 33.9 22.0 53 7.4 NE 19 20 10 11 1009.3 - 0.0
01/03:30pm 33.3 34.9 22.1 52 7.6 NE 17 22 9 12 1009.3 - 0.0
01/03:00pm 33.6 35.5 22.7 53 7.5 NE 17 20 9 11 1009.4 1009.3 0.0
01/02:30pm 33.9 35.0 22.0 49 8.1 NNE 19 22 10 12 1009.7 - 0.0
01/02:00pm 33.9 35.0 22.3 50 7.9 NNE 20 24 11 13 1010.1 - 0.0
01/01:30pm 34.3 36.0 23.0 51 7.8 NE 19 22 10 12 1010.4 - 0.0
01/01:00pm 33.9 35.6 22.3 50 7.9 NE 17 20 9 11 1010.8 - 0.0
01/12:30pm 33.6 35.7 22.4 52 7.7 NE 15 20 8 11 1011.0 - 0.0
01/12:00pm 32.8 35.1 22.0 53 7.4 NE 13 17 7 9 1011.5 1011.4 0.0
01/11:30am 32.7 35.3 21.9 53 7.3 NE 11 13 6 7 1011.8 - 0.0
01/11:00am 32.5 35.1 22.0 54 7.1 NE 11 13 6 7 1012.0 - 0.0
01/10:30am 30.7 34.3 22.0 59 5.9 NE 6 7 3 4 1012.4 - 0.0
01/10:00am 29.6 34.5 22.3 65 4.9 CALM 0 6 0 3 1012.6 - 0.0
01/09:30am 28.3 31.8 21.8 68 4.4 SW 6 9 3 5 1012.6 - 0.0
01/09:00am 27.6 30.8 21.6 70 4.0 W 7 11 4 6 1012.7 1012.6 0.0
01/08:30am 27.7 30.3 22.0 71 3.8 WNW 11 13 6 7 1012.4 - 0.0
01/08:00am 26.6 29.0 21.6 74 3.3 W 11 13 6 7 1012.4 - 0.0
01/07:30am 26.1 27.8 21.7 77 2.9 W 15 17 8 9 1012.2 - 0.0
01/07:00am 25.7 27.5 21.8 79 2.6 WSW 15 17 8 9 1011.8 - 0.0
01/06:30am 25.7 28.0 22.0 80 2.5 WNW 13 17 7 9 1011.3 - 0.0
01/06:00am 25.5 28.4 21.8 80 2.5 WNW 9 13 5 7 1011.0 1010.9 0.0
01/05:30am 25.7 28.1 22.2 81 2.3 W 13 17 7 9 1010.9 - 0.0
01/05:00am 25.7 27.2 22.0 80 2.5 WNW 17 20 9 11 1010.5 - 0.0
01/04:30am 25.8 26.6 21.7 78 2.7 WNW 20 24 11 13 1010.1 - 0.0
01/04:00am 26.1 27.3 22.2 79 2.6 NW 19 20 10 11 1010.1 - 0.0
01/03:30am 26.1 27.3 22.2 79 2.6 NW 19 20 10 11 1010.0 - 0.0
01/03:00am 26.2 26.9 22.3 79 2.6 NW 22 24 12 13 1010.1 1010.0 0.0
01/02:30am 26.1 26.8 21.5 76 3.1 W 20 24 11 13 1010.0 - 0.0
01/02:00am 26.1 26.3 22.0 78 2.7 W 24 28 13 15 1010.5 - 0.0
01/01:30am 26.3 28.0 22.4 79 2.6 W 17 20 9 11 1010.6 - 0.0
01/01:00am 26.6 28.5 22.7 79 2.6 NW 17 19 9 10 1010.7 - 0.0
01/12:30am 26.7 30.5 22.8 79 2.6 SW 7 11 4 6 1010.9 - 0.0
01/12:00am 26.6 30.8 23.1 81 2.4 W 6 11 3 6 1011.0 1010.9 0.0
 
Date/Time
EST
Temp
°C
App
Temp
°C
Dew
Point
°C
Rel
Hum
%
Delta-T
°C
Wind Press
QNH
hPa
Press
MSL
hPa
Rain since
9am
mm
Dir  Spd
km/h
Gust
km/h
Spd
kts
Gust
kts
30/11:30pm 26.0 29.2 21.7 77 2.9 N 7 9 4 5 1011.0 - 0.0
30/11:00pm 26.0 28.9 21.7 77 2.9 N 9 13 5 7 1011.2 - 0.0
30/10:30pm 25.9 28.7 21.6 77 2.9 NNE 9 13 5 7 1011.2 - 0.0
30/10:00pm 26.2 29.5 21.8 77 2.9 ENE 7 11 4 6 1011.1 - 0.0
30/09:30pm 26.1 29.0 21.1 74 3.3 NE 7 11 4 6 1010.6 - 0.0
30/09:00pm 26.1 28.8 20.7 72 3.5 NE 7 11 4 6 1010.3 1010.2 0.0
30/08:30pm 26.2 28.5 20.7 71 3.6 NE 9 13 5 7 1009.9 - 0.0
30/08:00pm 26.7 28.4 21.0 71 3.8 NE 13 15 7 8 1009.9 - 0.0
30/07:30pm 27.1 28.6 21.2 70 3.9 NE 15 19 8 10 1009.5 - 0.0
30/07:00pm 27.3 28.6 20.9 68 4.2 NE 15 17 8 9 1009.2 - 0.0
30/06:30pm 28.3 29.3 21.1 65 4.8 NE 17 20 9 11 1008.8 - 0.0
30/06:00pm 29.1 30.1 21.1 62 5.3 ENE 17 20 9 11 1008.7 1008.6 0.0
30/05:30pm 29.8 30.5 20.4 57 6.2 NE 17 19 9 10 1008.5 - 0.0
30/05:00pm 30.9 31.5 20.2 53 7.1 ENE 17 20 9 11 1008.3 - 0.0
30/04:30pm 31.7 32.8 21.2 53 7.1 ENE 17 20 9 11 1008.1 - 0.0
30/04:00pm 32.1 33.0 20.0 48 8.0 ENE 15 17 8 9 1008.1 - 0.0
30/03:30pm 32.4 33.3 20.0 48 8.2 ENE 15 19 8 10 1008.2 - 0.0
30/03:00pm 32.4 32.5 20.0 48 8.2 ENE 19 22 10 12 1008.4 1008.3 0.0
30/02:30pm 33.4 34.7 20.9 48 8.4 NE 15 19 8 10 1008.7 - 0.0
30/02:00pm 33.3 34.5 21.5 50 8.0 NE 17 20 9 11 1009.0 - 0.0
30/01:30pm 33.3 34.3 21.1 48 8.2 ENE 17 22 9 12 1009.2 - 0.0
30/01:00pm 32.8 33.6 21.3 50 7.8 ENE 19 22 10 12 1009.6 - 0.0
30/12:30pm 32.9 34.2 21.7 51 7.6 E 17 24 9 13 1010.1 - 0.0

Other Formats:

Comma delimited format used in spreadsheet applications
http://www.bom.gov.au/fwo/IDQ60801/IDQ60801.94285.axf

JavaScript Object Notation format (JSON) in row-major order
http://www.bom.gov.au/fwo/IDQ60801/IDQ60801.94285.json